sensor_id;sensor_type;location;lat;lon;timestamp;pressure;altitude;pressure_sealevel;temperature;humidity
61478;BME280;47345;52.334;10.392;2023-02-11T00:00:16;102345.42;;;4.39;82.20
61478;BME280;47345;52.334;10.392;2023-02-11T00:02:46;102331.72;;;4.41;82.25
61478;BME280;47345;52.334;10.392;2023-02-11T00:05:17;102328.48;;;4.43;82.29
61478;BME280;47345;52.334;10.392;2023-02-11T00:07:47;102321.50;;;4.45;82.27
61478;BME280;47345;52.334;10.392;2023-02-11T00:10:18;102315.05;;;4.46;82.44
61478;BME280;47345;52.334;10.392;2023-02-11T00:12:49;102314.37;;;4.48;82.40
61478;BME280;47345;52.334;10.392;2023-02-11T00:15:19;102317.69;;;4.49;82.46
61478;BME280;47345;52.334;10.392;2023-02-11T00:17:50;102316.59;;;4.51;82.29
61478;BME280;47345;52.334;10.392;2023-02-11T00:20:21;102320.63;;;4.53;82.55
61478;BME280;47345;52.334;10.392;2023-02-11T00:22:51;102320.48;;;4.55;82.49
61478;BME280;47345;52.334;10.392;2023-02-11T00:25:22;102322.74;;;4.56;82.56
61478;BME280;47345;52.334;10.392;2023-02-11T00:27:52;102326.60;;;4.57;82.35
61478;BME280;47345;52.334;10.392;2023-02-11T00:30:22;102322.39;;;4.58;82.60
61478;BME280;47345;52.334;10.392;2023-02-11T00:32:53;102318.82;;;4.60;82.53
61478;BME280;47345;52.334;10.392;2023-02-11T00:35:23;102312.86;;;4.62;82.60
61478;BME280;47345;52.334;10.392;2023-02-11T00:37:55;102308.02;;;4.63;82.80
61478;BME280;47345;52.334;10.392;2023-02-11T00:40:25;102303.77;;;4.65;82.81
61478;BME280;47345;52.334;10.392;2023-02-11T00:42:56;102303.77;;;4.67;82.92
61478;BME280;47345;52.334;10.392;2023-02-11T00:45:26;102301.34;;;4.67;82.93
61478;BME280;47345;52.334;10.392;2023-02-11T00:47:58;102305.68;;;4.70;82.89
61478;BME280;47345;52.334;10.392;2023-02-11T00:50:29;102319.85;;;4.71;82.94
61478;BME280;47345;52.334;10.392;2023-02-11T00:52:59;102332.80;;;4.72;83.00
61478;BME280;47345;52.334;10.392;2023-02-11T00:55:30;102338.94;;;4.74;83.19
61478;BME280;47345;52.334;10.392;2023-02-11T00:58:00;102339.17;;;4.76;83.23
61478;BME280;47345;52.334;10.392;2023-02-11T01:00:31;102336.34;;;4.77;83.24
61478;BME280;47345;52.334;10.392;2023-02-11T01:03:01;102343.87;;;4.78;83.31
61478;BME280;47345;52.334;10.392;2023-02-11T01:05:31;102347.36;;;4.79;83.43
61478;BME280;47345;52.334;10.392;2023-02-11T01:08:02;102345.60;;;4.81;83.30
61478;BME280;47345;52.334;10.392;2023-02-11T01:10:33;102344.48;;;4.81;83.50
61478;BME280;47345;52.334;10.392;2023-02-11T01:13:03;102342.76;;;4.82;83.55
61478;BME280;47345;52.334;10.392;2023-02-11T01:15:34;102341.58;;;4.83;83.39
61478;BME280;47345;52.334;10.392;2023-02-11T01:18:06;102333.64;;;4.85;83.66
61478;BME280;47345;52.334;10.392;2023-02-11T01:20:36;102313.85;;;4.86;83.42
61478;BME280;47345;52.334;10.392;2023-02-11T01:23:07;102298.14;;;4.88;83.42
61478;BME280;47345;52.334;10.392;2023-02-11T01:25:37;102293.43;;;4.89;83.49
61478;BME280;47345;52.334;10.392;2023-02-11T01:28:15;102295.81;;;4.90;83.68
61478;BME280;47345;52.334;10.392;2023-02-11T01:30:45;102294.52;;;4.90;83.58
61478;BME280;47345;52.334;10.392;2023-02-11T01:33:16;102305.08;;;4.92;83.83
61478;BME280;47345;52.334;10.392;2023-02-11T01:35:46;102308.48;;;4.92;83.83
61478;BME280;47345;52.334;10.392;2023-02-11T01:38:19;102299.34;;;4.93;84.01
61478;BME280;47345;52.334;10.392;2023-02-11T01:40:52;102291.33;;;4.94;83.96
61478;BME280;47345;52.334;10.392;2023-02-11T01:43:23;102296.73;;;4.94;84.05
61478;BME280;47345;52.334;10.392;2023-02-11T01:46:01;102293.91;;;4.95;84.04
61478;BME280;47345;52.334;10.392;2023-02-11T01:48:36;102284.84;;;4.96;84.30
61478;BME280;47345;52.334;10.392;2023-02-11T01:51:11;102274.30;;;4.96;84.42
61478;BME280;47345;52.334;10.392;2023-02-11T01:53:44;102280.88;;;4.98;84.56
61478;BME280;47345;52.334;10.392;2023-02-11T01:56:37;102283.19;;;4.98;84.78
61478;BME280;47345;52.334;10.392;2023-02-11T01:59:29;102278.06;;;4.99;85.04
61478;BME280;47345;52.334;10.392;2023-02-11T02:02:05;102280.30;;;5.00;85.12
61478;BME280;47345;52.334;10.392;2023-02-11T02:04:40;102287.61;;;5.01;85.42
61478;BME280;47345;52.334;10.392;2023-02-11T02:07:19;102279.52;;;5.01;85.33
61478;BME280;47345;52.334;10.392;2023-02-11T02:09:55;102281.36;;;5.02;85.47
61478;BME280;47345;52.334;10.392;2023-02-11T02:12:27;102276.27;;;5.03;85.66
61478;BME280;47345;52.334;10.392;2023-02-11T02:17:59;102263.33;;;5.07;85.80
61478;BME280;47345;52.334;10.392;2023-02-11T02:20:55;102263.27;;;5.05;85.95
61478;BME280;47345;52.334;10.392;2023-02-11T02:23:47;102258.17;;;5.05;85.93
61478;BME280;47345;52.334;10.392;2023-02-11T02:26:39;102256.15;;;5.06;86.15
61478;BME280;47345;52.334;10.392;2023-02-11T02:32:39;102251.35;;;5.07;86.58
61478;BME280;47345;52.334;10.392;2023-02-11T02:35:20;102248.84;;;5.07;86.93
61478;BME280;47345;52.334;10.392;2023-02-11T02:37:58;102248.65;;;5.07;86.89
61478;BME280;47345;52.334;10.392;2023-02-11T02:40:51;102241.25;;;5.07;87.12
61478;BME280;47345;52.334;10.392;2023-02-11T02:43:26;102239.40;;;5.07;87.38
61478;BME280;47345;52.334;10.392;2023-02-11T02:46:10;102239.77;;;5.07;87.27
61478;BME280;47345;52.334;10.392;2023-02-11T02:48:41;102237.25;;;5.07;87.57
61478;BME280;47345;52.334;10.392;2023-02-11T02:51:32;102231.09;;;5.07;87.61
61478;BME280;47345;52.334;10.392;2023-02-11T02:54:23;102226.33;;;5.08;87.79
61478;BME280;47345;52.334;10.392;2023-02-11T02:57:06;102225.76;;;5.08;87.95
61478;BME280;47345;52.334;10.392;2023-02-11T02:59:47;102228.59;;;5.09;87.95
61478;BME280;47345;52.334;10.392;2023-02-11T03:02:24;102227.84;;;5.09;87.98
61478;BME280;47345;52.334;10.392;2023-02-11T03:05:00;102230.87;;;5.10;88.10
61478;BME280;47345;52.334;10.392;2023-02-11T03:07:39;102234.88;;;5.09;88.23
61478;BME280;47345;52.334;10.392;2023-02-11T03:10:14;102232.39;;;5.09;88.27
61478;BME280;47345;52.334;10.392;2023-02-11T03:12:46;102230.88;;;5.10;88.28
61478;BME280;47345;52.334;10.392;2023-02-11T03:15:18;102226.16;;;5.10;88.36
61478;BME280;47345;52.334;10.392;2023-02-11T03:17:52;102225.23;;;5.10;88.52
61478;BME280;47345;52.334;10.392;2023-02-11T03:20:24;102224.14;;;5.10;88.59
61478;BME280;47345;52.334;10.392;2023-02-11T03:22:57;102224.31;;;5.10;88.60
61478;BME280;47345;52.334;10.392;2023-02-11T03:25:33;102218.88;;;5.08;88.71
61478;BME280;47345;52.334;10.392;2023-02-11T03:28:10;102214.77;;;5.12;88.85
61478;BME280;47345;52.334;10.392;2023-02-11T03:30:46;102204.96;;;5.12;88.90
61478;BME280;47345;52.334;10.392;2023-02-11T03:33:25;102195.85;;;5.13;88.98
61478;BME280;47345;52.334;10.392;2023-02-11T03:36:01;102193.75;;;5.14;89.00
61478;BME280;47345;52.334;10.392;2023-02-11T03:38:35;102198.55;;;5.15;89.02
61478;BME280;47345;52.334;10.392;2023-02-11T03:41:08;102203.35;;;5.16;89.04
61478;BME280;47345;52.334;10.392;2023-02-11T03:43:43;102204.75;;;5.17;89.07
61478;BME280;47345;52.334;10.392;2023-02-11T03:46:17;102209.36;;;5.18;89.09
61478;BME280;47345;52.334;10.392;2023-02-11T03:48:50;102210.70;;;5.19;89.09
61478;BME280;47345;52.334;10.392;2023-02-11T03:51:23;102214.25;;;5.20;89.33
61478;BME280;47345;52.334;10.392;2023-02-11T03:53:56;102221.05;;;5.21;89.32
61478;BME280;47345;52.334;10.392;2023-02-11T03:56:31;102225.14;;;5.22;89.42
61478;BME280;47345;52.334;10.392;2023-02-11T03:59:03;102220.39;;;5.22;89.48
61478;BME280;47345;52.334;10.392;2023-02-11T04:01:33;102217.69;;;5.22;89.60
61478;BME280;47345;52.334;10.392;2023-02-11T04:04:04;102221.45;;;5.22;89.80
61478;BME280;47345;52.334;10.392;2023-02-11T04:06:34;102224.86;;;5.23;90.02
61478;BME280;47345;52.334;10.392;2023-02-11T04:09:05;102221.06;;;5.23;90.12
61478;BME280;47345;52.334;10.392;2023-02-11T04:11:35;102222.83;;;5.23;90.12
61478;BME280;47345;52.334;10.392;2023-02-11T04:14:06;102222.27;;;5.23;90.15
61478;BME280;47345;52.334;10.392;2023-02-11T04:16:36;102228.20;;;5.24;90.22
61478;BME280;47345;52.334;10.392;2023-02-11T04:19:07;102231.89;;;5.23;90.31
61478;BME280;47345;52.334;10.392;2023-02-11T04:21:37;102232.57;;;5.23;90.36
61478;BME280;47345;52.334;10.392;2023-02-11T04:24:07;102229.81;;;5.24;90.47
61478;BME280;47345;52.334;10.392;2023-02-11T04:26:38;102238.81;;;5.24;90.63
61478;BME280;47345;52.334;10.392;2023-02-11T04:29:08;102238.17;;;5.25;90.73
61478;BME280;47345;52.334;10.392;2023-02-11T04:31:38;102241.35;;;5.26;90.78
61478;BME280;47345;52.334;10.392;2023-02-11T04:34:09;102239.84;;;5.27;90.85
61478;BME280;47345;52.334;10.392;2023-02-11T04:36:40;102249.54;;;5.28;90.81
61478;BME280;47345;52.334;10.392;2023-02-11T04:39:10;102247.85;;;5.28;90.78
61478;BME280;47345;52.334;10.392;2023-02-11T04:41:41;102249.48;;;5.29;90.88
61478;BME280;47345;52.334;10.392;2023-02-11T04:44:11;102247.60;;;5.29;91.00
61478;BME280;47345;52.334;10.392;2023-02-11T04:46:41;102246.09;;;5.30;91.14
61478;BME280;47345;52.334;10.392;2023-02-11T04:49:13;102239.88;;;5.31;91.31
61478;BME280;47345;52.334;10.392;2023-02-11T04:51:44;102230.64;;;5.31;91.42
61478;BME280;47345;52.334;10.392;2023-02-11T04:54:17;102227.74;;;5.31;91.54
61478;BME280;47345;52.334;10.392;2023-02-11T04:56:48;102230.84;;;5.31;91.60
61478;BME280;47345;52.334;10.392;2023-02-11T04:59:19;102231.37;;;5.30;91.69
61478;BME280;47345;52.334;10.392;2023-02-11T05:01:49;102228.00;;;5.30;91.75
61478;BME280;47345;52.334;10.392;2023-02-11T05:04:19;102233.91;;;5.31;91.90
61478;BME280;47345;52.334;10.392;2023-02-11T05:06:50;102228.35;;;5.30;91.97
61478;BME280;47345;52.334;10.392;2023-02-11T05:09:20;102230.20;;;5.29;92.13
61478;BME280;47345;52.334;10.392;2023-02-11T05:11:51;102230.80;;;5.29;92.02
61478;BME280;47345;52.334;10.392;2023-02-11T05:14:21;102225.98;;;5.28;92.17
61478;BME280;47345;52.334;10.392;2023-02-11T05:16:52;102220.77;;;5.28;92.33
61478;BME280;47345;52.334;10.392;2023-02-11T05:19:22;102214.85;;;5.27;92.36
61478;BME280;47345;52.334;10.392;2023-02-11T05:21:53;102216.31;;;5.27;92.42
61478;BME280;47345;52.334;10.392;2023-02-11T05:24:31;102216.55;;;5.28;92.45
61478;BME280;47345;52.334;10.392;2023-02-11T05:27:02;102220.90;;;5.29;92.37
61478;BME280;47345;52.334;10.392;2023-02-11T05:29:32;102220.13;;;5.29;92.50
61478;BME280;47345;52.334;10.392;2023-02-11T05:32:03;102214.84;;;5.29;92.45
61478;BME280;47345;52.334;10.392;2023-02-11T05:34:35;102213.25;;;5.31;92.53
61478;BME280;47345;52.334;10.392;2023-02-11T05:37:05;102214.86;;;5.31;92.49
61478;BME280;47345;52.334;10.392;2023-02-11T05:39:36;102221.43;;;5.32;92.52
61478;BME280;47345;52.334;10.392;2023-02-11T05:42:06;102217.27;;;5.33;92.61
61478;BME280;47345;52.334;10.392;2023-02-11T05:44:37;102216.13;;;5.33;92.57
61478;BME280;47345;52.334;10.392;2023-02-11T05:47:07;102210.48;;;5.34;92.51
61478;BME280;47345;52.334;10.392;2023-02-11T05:49:37;102206.42;;;5.35;92.61
61478;BME280;47345;52.334;10.392;2023-02-11T05:52:08;102198.27;;;5.35;92.52
61478;BME280;47345;52.334;10.392;2023-02-11T05:54:38;102195.86;;;5.36;92.48
61478;BME280;47345;52.334;10.392;2023-02-11T05:57:09;102192.42;;;5.36;92.52
61478;BME280;47345;52.334;10.392;2023-02-11T05:59:39;102197.83;;;5.36;92.58
61478;BME280;47345;52.334;10.392;2023-02-11T06:02:10;102201.02;;;5.36;92.53
61478;BME280;47345;52.334;10.392;2023-02-11T06:04:40;102208.09;;;5.36;92.55
61478;BME280;47345;52.334;10.392;2023-02-11T06:07:12;102210.77;;;5.37;92.50
61478;BME280;47345;52.334;10.392;2023-02-11T06:09:42;102206.23;;;5.37;92.52
61478;BME280;47345;52.334;10.392;2023-02-11T06:12:13;102199.27;;;5.38;92.42
61478;BME280;47345;52.334;10.392;2023-02-11T06:14:43;102195.77;;;5.38;92.45
61478;BME280;47345;52.334;10.392;2023-02-11T06:17:14;102193.67;;;5.40;92.38
61478;BME280;47345;52.334;10.392;2023-02-11T06:19:44;102193.67;;;5.40;92.30
61478;BME280;47345;52.334;10.392;2023-02-11T06:22:15;102191.83;;;5.40;92.32
61478;BME280;47345;52.334;10.392;2023-02-11T06:24:45;102195.42;;;5.41;92.36
61478;BME280;47345;52.334;10.392;2023-02-11T06:27:29;102193.75;;;5.41;92.22
61478;BME280;47345;52.334;10.392;2023-02-11T06:29:59;102189.02;;;5.41;92.29
61478;BME280;47345;52.334;10.392;2023-02-11T06:32:30;102190.04;;;5.42;92.25
61478;BME280;47345;52.334;10.392;2023-02-11T06:35:13;102189.26;;;5.43;92.29
61478;BME280;47345;52.334;10.392;2023-02-11T06:37:44;102186.11;;;5.43;92.25
61478;BME280;47345;52.334;10.392;2023-02-11T06:40:14;102189.15;;;5.44;92.30
61478;BME280;47345;52.334;10.392;2023-02-11T06:42:45;102191.10;;;5.44;92.22
61478;BME280;47345;52.334;10.392;2023-02-11T06:45:15;102186.29;;;5.43;92.21
61478;BME280;47345;52.334;10.392;2023-02-11T06:47:46;102188.58;;;5.46;92.14
61478;BME280;47345;52.334;10.392;2023-02-11T06:50:16;102190.30;;;5.47;92.25
61478;BME280;47345;52.334;10.392;2023-02-11T06:52:47;102188.27;;;5.48;92.27
61478;BME280;47345;52.334;10.392;2023-02-11T06:55:17;102184.09;;;5.50;92.33
61478;BME280;47345;52.334;10.392;2023-02-11T06:57:48;102188.98;;;5.52;92.36
61478;BME280;47345;52.334;10.392;2023-02-11T07:00:19;102193.12;;;5.54;92.34
61478;BME280;47345;52.334;10.392;2023-02-11T07:02:49;102195.92;;;5.55;92.38
61478;BME280;47345;52.334;10.392;2023-02-11T07:05:20;102201.36;;;5.57;92.30
61478;BME280;47345;52.334;10.392;2023-02-11T07:07:51;102201.62;;;5.58;92.25
61478;BME280;47345;52.334;10.392;2023-02-11T07:10:21;102202.52;;;5.60;92.22
61478;BME280;47345;52.334;10.392;2023-02-11T07:12:52;102205.79;;;5.63;92.16
61478;BME280;47345;52.334;10.392;2023-02-11T07:15:25;102206.38;;;5.64;92.17
61478;BME280;47345;52.334;10.392;2023-02-11T07:17:55;102207.76;;;5.65;92.16
61478;BME280;47345;52.334;10.392;2023-02-11T07:20:25;102197.58;;;5.63;92.20
61478;BME280;47345;52.334;10.392;2023-02-11T07:22:56;102204.95;;;5.67;92.10
61478;BME280;47345;52.334;10.392;2023-02-11T07:25:28;102209.52;;;5.69;91.99
61478;BME280;47345;52.334;10.392;2023-02-11T07:27:58;102208.89;;;5.70;91.99
61478;BME280;47345;52.334;10.392;2023-02-11T07:30:28;102202.98;;;5.71;92.02
61478;BME280;47345;52.334;10.392;2023-02-11T07:32:59;102198.52;;;5.73;91.90
61478;BME280;47345;52.334;10.392;2023-02-11T07:35:29;102200.59;;;5.74;91.89
61478;BME280;47345;52.334;10.392;2023-02-11T07:38:01;102201.53;;;5.75;91.79
61478;BME280;47345;52.334;10.392;2023-02-11T07:40:31;102200.73;;;5.76;91.75
61478;BME280;47345;52.334;10.392;2023-02-11T07:43:02;102200.19;;;5.79;91.66
61478;BME280;47345;52.334;10.392;2023-02-11T07:45:32;102196.45;;;5.80;91.69
61478;BME280;47345;52.334;10.392;2023-02-11T07:48:03;102194.91;;;5.81;91.65
61478;BME280;47345;52.334;10.392;2023-02-11T07:50:33;102197.99;;;5.83;91.55
61478;BME280;47345;52.334;10.392;2023-02-11T07:53:04;102200.34;;;5.85;91.46
61478;BME280;47345;52.334;10.392;2023-02-11T07:55:34;102206.03;;;5.86;91.56
61478;BME280;47345;52.334;10.392;2023-02-11T07:58:06;102210.06;;;5.87;91.48
61478;BME280;47345;52.334;10.392;2023-02-11T08:00:39;102213.14;;;5.89;91.45
61478;BME280;47345;52.334;10.392;2023-02-11T08:03:12;102212.52;;;5.90;91.50
61478;BME280;47345;52.334;10.392;2023-02-11T08:05:48;102207.64;;;5.92;91.46
61478;BME280;47345;52.334;10.392;2023-02-11T08:08:24;102214.16;;;5.94;91.53
61478;BME280;47345;52.334;10.392;2023-02-11T08:10:57;102220.54;;;5.96;91.42
61478;BME280;47345;52.334;10.392;2023-02-11T08:13:29;102217.50;;;5.97;91.49
61478;BME280;47345;52.334;10.392;2023-02-11T08:16:01;102213.70;;;5.99;91.52
61478;BME280;47345;52.334;10.392;2023-02-11T08:18:35;102217.00;;;6.01;91.32
61478;BME280;47345;52.334;10.392;2023-02-11T08:21:09;102224.54;;;6.04;91.41
61478;BME280;47345;52.334;10.392;2023-02-11T08:23:43;102234.14;;;6.05;91.42
61478;BME280;47345;52.334;10.392;2023-02-11T08:26:19;102227.54;;;6.07;91.35
61478;BME280;47345;52.334;10.392;2023-02-11T08:28:52;102237.44;;;6.09;91.42
61478;BME280;47345;52.334;10.392;2023-02-11T08:31:24;102234.15;;;6.10;91.50
61478;BME280;47345;52.334;10.392;2023-02-11T08:33:55;102239.70;;;6.12;91.37
61478;BME280;47345;52.334;10.392;2023-02-11T08:36:29;102244.45;;;6.14;91.47
61478;BME280;47345;52.334;10.392;2023-02-11T08:39:01;102242.42;;;6.16;91.39
61478;BME280;47345;52.334;10.392;2023-02-11T08:41:48;102240.55;;;6.17;91.36
61478;BME280;47345;52.334;10.392;2023-02-11T08:44:21;102235.27;;;6.19;91.50
61478;BME280;47345;52.334;10.392;2023-02-11T08:46:52;102233.88;;;6.20;91.52
61478;BME280;47345;52.334;10.392;2023-02-11T08:49:23;102235.14;;;6.23;91.56
61478;BME280;47345;52.334;10.392;2023-02-11T08:51:53;102236.29;;;6.24;91.46
61478;BME280;47345;52.334;10.392;2023-02-11T08:54:24;102241.06;;;6.25;91.41
61478;BME280;47345;52.334;10.392;2023-02-11T08:56:55;102244.44;;;6.26;91.40
61478;BME280;47345;52.334;10.392;2023-02-11T08:59:25;102246.85;;;6.27;91.43
61478;BME280;47345;52.334;10.392;2023-02-11T09:01:56;102256.33;;;6.29;91.46
61478;BME280;47345;52.334;10.392;2023-02-11T09:04:27;102254.52;;;6.31;91.43
61478;BME280;47345;52.334;10.392;2023-02-11T09:07:00;102257.67;;;6.32;91.31
61478;BME280;47345;52.334;10.392;2023-02-11T09:09:34;102254.21;;;6.34;91.25
61478;BME280;47345;52.334;10.392;2023-02-11T09:12:08;102255.02;;;6.35;91.19
61478;BME280;47345;52.334;10.392;2023-02-11T09:14:42;102258.00;;;6.38;91.24
61478;BME280;47345;52.334;10.392;2023-02-11T09:17:14;102263.06;;;6.40;91.06
61478;BME280;47345;52.334;10.392;2023-02-11T09:19:48;102265.66;;;6.42;91.01
61478;BME280;47345;52.334;10.392;2023-02-11T09:22:20;102272.89;;;6.42;91.12
61478;BME280;47345;52.334;10.392;2023-02-11T09:24:50;102283.87;;;6.43;91.12
61478;BME280;47345;52.334;10.392;2023-02-11T09:27:21;102285.61;;;6.43;91.25
61478;BME280;47345;52.334;10.392;2023-02-11T09:29:53;102286.55;;;6.43;91.06
61478;BME280;47345;52.334;10.392;2023-02-11T09:32:26;102297.89;;;6.44;91.21
61478;BME280;47345;52.334;10.392;2023-02-11T09:34:59;102296.20;;;6.44;91.25
61478;BME280;47345;52.334;10.392;2023-02-11T09:37:30;102296.88;;;6.45;91.20
61478;BME280;47345;52.334;10.392;2023-02-11T09:40:06;102300.27;;;6.45;91.27
61478;BME280;47345;52.334;10.392;2023-02-11T09:42:49;102303.12;;;6.46;91.27
61478;BME280;47345;52.334;10.392;2023-02-11T09:45:29;102304.75;;;6.48;91.31
61478;BME280;47345;52.334;10.392;2023-02-11T09:48:03;102310.52;;;6.48;91.39
61478;BME280;47345;52.334;10.392;2023-02-11T09:50:38;102312.14;;;6.50;91.41
61478;BME280;47345;52.334;10.392;2023-02-11T09:53:13;102311.20;;;6.53;91.49
61478;BME280;47345;52.334;10.392;2023-02-11T09:55:48;102309.32;;;6.56;91.57
61478;BME280;47345;52.334;10.392;2023-02-11T09:58:26;102309.49;;;6.58;91.64
61478;BME280;47345;52.334;10.392;2023-02-11T10:01:03;102313.39;;;6.59;91.60
61478;BME280;47345;52.334;10.392;2023-02-11T10:06:38;102318.49;;;6.61;91.96
61478;BME280;47345;52.334;10.392;2023-02-11T10:09:23;102315.55;;;6.61;92.20
61478;BME280;47345;52.334;10.392;2023-02-11T10:12:14;102316.51;;;6.62;92.47
61478;BME280;47345;52.334;10.392;2023-02-11T10:17:58;102317.74;;;6.67;92.57
61478;BME280;47345;52.334;10.392;2023-02-11T10:20:35;102322.55;;;6.68;92.64
61478;BME280;47345;52.334;10.392;2023-02-11T10:23:12;102319.12;;;6.68;92.59
61478;BME280;47345;52.334;10.392;2023-02-11T10:25:45;102319.45;;;6.68;92.57
61478;BME280;47345;52.334;10.392;2023-02-11T10:28:22;102325.16;;;6.69;92.75
61478;BME280;47345;52.334;10.392;2023-02-11T10:30:58;102323.77;;;6.68;92.83
61478;BME280;47345;52.334;10.392;2023-02-11T10:33:32;102323.45;;;6.68;92.87
61478;BME280;47345;52.334;10.392;2023-02-11T10:36:07;102315.91;;;6.69;92.96
61478;BME280;47345;52.334;10.392;2023-02-11T10:38:38;102314.59;;;6.71;92.91
61478;BME280;47345;52.334;10.392;2023-02-11T10:41:15;102320.80;;;6.73;93.12
61478;BME280;47345;52.334;10.392;2023-02-11T10:43:47;102318.84;;;6.74;93.14
61478;BME280;47345;52.334;10.392;2023-02-11T10:46:23;102315.08;;;6.76;93.13
61478;BME280;47345;52.334;10.392;2023-02-11T10:48:57;102317.49;;;6.77;93.24
61478;BME280;47345;52.334;10.392;2023-02-11T10:51:29;102316.45;;;6.78;93.21
61478;BME280;47345;52.334;10.392;2023-02-11T10:54:21;102311.27;;;6.80;93.26
61478;BME280;47345;52.334;10.392;2023-02-11T10:56:59;102313.96;;;6.80;93.25
61478;BME280;47345;52.334;10.392;2023-02-11T10:59:31;102308.36;;;6.80;93.27
61478;BME280;47345;52.334;10.392;2023-02-11T11:02:20;102312.08;;;6.81;93.29
61478;BME280;47345;52.334;10.392;2023-02-11T11:04:56;102314.31;;;6.82;93.19
61478;BME280;47345;52.334;10.392;2023-02-11T11:07:30;102322.56;;;6.85;93.30
61478;BME280;47345;52.334;10.392;2023-02-11T11:10:04;102326.65;;;6.88;93.13
61478;BME280;47345;52.334;10.392;2023-02-11T11:12:46;102329.33;;;6.90;93.14
61478;BME280;47345;52.334;10.392;2023-02-11T11:15:20;102328.52;;;6.91;93.25
61478;BME280;47345;52.334;10.392;2023-02-11T11:18:11;102324.63;;;6.92;93.22
61478;BME280;47345;52.334;10.392;2023-02-11T11:20:59;102310.05;;;6.93;93.17
61478;BME280;47345;52.334;10.392;2023-02-11T11:23:31;102310.13;;;6.94;93.06
61478;BME280;47345;52.334;10.392;2023-02-11T11:26:05;102313.29;;;6.95;93.17
61478;BME280;47345;52.334;10.392;2023-02-11T11:28:40;102317.15;;;6.97;93.22
61478;BME280;47345;52.334;10.392;2023-02-11T11:31:17;102322.70;;;6.97;93.20
61478;BME280;47345;52.334;10.392;2023-02-11T11:33:51;102330.23;;;6.99;93.48
61478;BME280;47345;52.334;10.392;2023-02-11T11:36:30;102335.88;;;7.00;93.26
61478;BME280;47345;52.334;10.392;2023-02-11T11:39:00;102329.52;;;7.02;93.40
61478;BME280;47345;52.334;10.392;2023-02-11T11:41:36;102323.48;;;7.04;93.22
61478;BME280;47345;52.334;10.392;2023-02-11T11:44:24;102315.67;;;7.06;93.07
61478;BME280;47345;52.334;10.392;2023-02-11T11:47:10;102314.88;;;7.09;93.05
61478;BME280;47345;52.334;10.392;2023-02-11T11:49:49;102315.94;;;7.12;92.89
61478;BME280;47345;52.334;10.392;2023-02-11T11:52:31;102322.34;;;7.13;92.90
61478;BME280;47345;52.334;10.392;2023-02-11T11:55:11;102326.36;;;7.14;92.88
61478;BME280;47345;52.334;10.392;2023-02-11T11:57:44;102322.29;;;7.17;92.82
61478;BME280;47345;52.334;10.392;2023-02-11T12:00:21;102326.52;;;7.20;92.68
61478;BME280;47345;52.334;10.392;2023-02-11T12:03:20;102329.44;;;7.22;92.37
61478;BME280;47345;52.334;10.392;2023-02-11T12:06:09;102325.45;;;7.24;92.26
61478;BME280;47345;52.334;10.392;2023-02-11T12:08:50;102324.23;;;7.26;92.35
61478;BME280;47345;52.334;10.392;2023-02-11T12:11:32;102326.58;;;7.28;92.03
61478;BME280;47345;52.334;10.392;2023-02-11T12:14:15;102329.00;;;7.31;92.32
61478;BME280;47345;52.334;10.392;2023-02-11T12:16:56;102340.27;;;7.33;92.20
61478;BME280;47345;52.334;10.392;2023-02-11T12:20:01;102344.75;;;7.35;92.13
61478;BME280;47345;52.334;10.392;2023-02-11T12:22:43;102349.71;;;7.36;92.00
61478;BME280;47345;52.334;10.392;2023-02-11T12:25:26;102344.61;;;7.36;91.84
61478;BME280;47345;52.334;10.392;2023-02-11T12:28:10;102350.88;;;7.37;91.83
61478;BME280;47345;52.334;10.392;2023-02-11T12:30:53;102344.48;;;7.37;91.79
61478;BME280;47345;52.334;10.392;2023-02-11T12:33:38;102348.36;;;7.37;91.49
61478;BME280;47345;52.334;10.392;2023-02-11T12:36:20;102345.29;;;7.37;91.35
61478;BME280;47345;52.334;10.392;2023-02-11T12:39:06;102348.96;;;7.36;91.45
61478;BME280;47345;52.334;10.392;2023-02-11T12:41:55;102349.14;;;7.36;91.66
61478;BME280;47345;52.334;10.392;2023-02-11T12:45:01;102347.17;;;7.38;91.70
61478;BME280;47345;52.334;10.392;2023-02-11T12:47:43;102343.27;;;7.39;91.63
61478;BME280;47345;52.334;10.392;2023-02-11T12:50:23;102349.46;;;7.38;91.47
61478;BME280;47345;52.334;10.392;2023-02-11T12:53:06;102349.27;;;7.39;91.52
61478;BME280;47345;52.334;10.392;2023-02-11T12:55:41;102353.29;;;7.39;91.57
61478;BME280;47345;52.334;10.392;2023-02-11T12:58:17;102353.69;;;7.38;91.53
61478;BME280;47345;52.334;10.392;2023-02-11T13:00:55;102350.00;;;7.37;91.67
61478;BME280;47345;52.334;10.392;2023-02-11T13:03:33;102346.92;;;7.39;91.63
61478;BME280;47345;52.334;10.392;2023-02-11T13:06:08;102345.03;;;7.40;91.66
61478;BME280;47345;52.334;10.392;2023-02-11T13:08:44;102338.80;;;7.40;91.73
61478;BME280;47345;52.334;10.392;2023-02-11T13:11:19;102336.71;;;7.41;91.69
61478;BME280;47345;52.334;10.392;2023-02-11T13:13:57;102338.88;;;7.41;91.78
61478;BME280;47345;52.334;10.392;2023-02-11T13:16:37;102345.64;;;7.43;91.98
61478;BME280;47345;52.334;10.392;2023-02-11T13:19:16;102350.14;;;7.45;91.93
61478;BME280;47345;52.334;10.392;2023-02-11T13:22:04;102349.40;;;7.49;91.96
61478;BME280;47345;52.334;10.392;2023-02-11T13:24:42;102348.20;;;7.52;91.83
61478;BME280;47345;52.334;10.392;2023-02-11T13:27:21;102346.01;;;7.54;91.66
61478;BME280;47345;52.334;10.392;2023-02-11T13:30:18;102345.19;;;7.55;91.60
61478;BME280;47345;52.334;10.392;2023-02-11T13:33:15;102346.95;;;7.56;91.59
61478;BME280;47345;52.334;10.392;2023-02-11T13:36:09;102346.20;;;7.56;91.30
61478;BME280;47345;52.334;10.392;2023-02-11T13:38:40;102347.87;;;7.56;91.50
61478;BME280;47345;52.334;10.392;2023-02-11T13:41:25;102349.50;;;7.56;91.38